Terminal Aerodrome Forecast
Issued by NWS Cleveland, OH

Home | Current Version | Previous Version | Graphics & Text | Print | Product List | Glossary On
Versions: 1 2 3 4 5 6 7 8 9 10 11 12 13 14 15 16 17 18 19 20 21
000
FTUS41 KCLE 160500
TAFMFD
TAF
KMFD 160521Z 1606/1706 14010KT P6SM SCT025 OVC080
      TEMPO 1606/1608 5SM -SHRA BR OVC025
     FM160800 14010KT 4SM -RA BR SCT008 OVC015
     FM161200 16010KT 4SM -RA BR OVC008
     FM161800 23010KT 3SM -RA BR OVC006
     FM170300 25010KT 6SM BR OVC008=

USA.gov is the U.S. government's official web portal to all federal, state and local government web resources and services.